sensor_id;sensor_type;location;lat;lon;timestamp;P1;durP1;ratioP1;P2;durP2;ratioP2
23159;SDS011;11748;50.844;4.396;2023-02-08T00:01:11;21.15;;;13.38;;
23159;SDS011;11748;50.844;4.396;2023-02-08T00:03:38;20.77;;;13.45;;
23159;SDS011;11748;50.844;4.396;2023-02-08T00:06:04;18.73;;;13.20;;
23159;SDS011;11748;50.844;4.396;2023-02-08T00:08:31;21.95;;;13.43;;
23159;SDS011;11748;50.844;4.396;2023-02-08T00:10:57;19.80;;;11.98;;
23159;SDS011;11748;50.844;4.396;2023-02-08T00:13:23;20.75;;;12.70;;
23159;SDS011;11748;50.844;4.396;2023-02-08T00:15:50;23.70;;;13.50;;
23159;SDS011;11748;50.844;4.396;2023-02-08T00:18:17;19.35;;;12.40;;
23159;SDS011;11748;50.844;4.396;2023-02-08T00:20:43;20.92;;;13.10;;
23159;SDS011;11748;50.844;4.396;2023-02-08T00:23:09;17.10;;;12.02;;
23159;SDS011;11748;50.844;4.396;2023-02-08T00:25:36;18.95;;;12.48;;
23159;SDS011;11748;50.844;4.396;2023-02-08T00:28:02;19.67;;;12.70;;
23159;SDS011;11748;50.844;4.396;2023-02-08T00:30:28;18.75;;;12.98;;
23159;SDS011;11748;50.844;4.396;2023-02-08T00:32:54;19.23;;;12.60;;
23159;SDS011;11748;50.844;4.396;2023-02-08T00:35:20;17.95;;;12.05;;
23159;SDS011;11748;50.844;4.396;2023-02-08T00:37:45;19.23;;;12.23;;
23159;SDS011;11748;50.844;4.396;2023-02-08T00:40:11;18.33;;;12.18;;
23159;SDS011;11748;50.844;4.396;2023-02-08T00:42:37;18.88;;;13.13;;
23159;SDS011;11748;50.844;4.396;2023-02-08T00:45:03;18.08;;;12.90;;
23159;SDS011;11748;50.844;4.396;2023-02-08T00:47:28;20.25;;;12.27;;
23159;SDS011;11748;50.844;4.396;2023-02-08T00:49:54;18.98;;;13.40;;
23159;SDS011;11748;50.844;4.396;2023-02-08T00:52:20;18.05;;;12.25;;
23159;SDS011;11748;50.844;4.396;2023-02-08T00:54:47;17.67;;;12.05;;
23159;SDS011;11748;50.844;4.396;2023-02-08T00:57:13;18.30;;;12.90;;
23159;SDS011;11748;50.844;4.396;2023-02-08T00:59:38;17.77;;;13.00;;
23159;SDS011;11748;50.844;4.396;2023-02-08T01:02:05;18.27;;;12.10;;
23159;SDS011;11748;50.844;4.396;2023-02-08T01:04:30;17.85;;;12.13;;
23159;SDS011;11748;50.844;4.396;2023-02-08T01:06:56;20.00;;;11.73;;
23159;SDS011;11748;50.844;4.396;2023-02-08T01:09:22;19.00;;;12.52;;
23159;SDS011;11748;50.844;4.396;2023-02-08T01:11:48;19.95;;;12.88;;
23159;SDS011;11748;50.844;4.396;2023-02-08T01:14:14;18.13;;;12.23;;
23159;SDS011;11748;50.844;4.396;2023-02-08T01:16:40;18.00;;;11.75;;
23159;SDS011;11748;50.844;4.396;2023-02-08T01:19:06;18.60;;;12.63;;
23159;SDS011;11748;50.844;4.396;2023-02-08T01:21:33;18.35;;;13.02;;
23159;SDS011;11748;50.844;4.396;2023-02-08T01:24:01;18.15;;;12.23;;
23159;SDS011;11748;50.844;4.396;2023-02-08T01:26:27;21.48;;;12.32;;
23159;SDS011;11748;50.844;4.396;2023-02-08T01:28:54;17.95;;;12.10;;
23159;SDS011;11748;50.844;4.396;2023-02-08T01:31:21;18.02;;;11.75;;
23159;SDS011;11748;50.844;4.396;2023-02-08T01:33:48;19.45;;;11.25;;
23159;SDS011;11748;50.844;4.396;2023-02-08T01:36:15;18.95;;;12.10;;
23159;SDS011;11748;50.844;4.396;2023-02-08T01:38:41;19.70;;;11.95;;
23159;SDS011;11748;50.844;4.396;2023-02-08T01:41:10;19.42;;;12.13;;
23159;SDS011;11748;50.844;4.396;2023-02-08T01:46:53;20.38;;;12.48;;
23159;SDS011;11748;50.844;4.396;2023-02-08T01:52:09;18.48;;;12.20;;
23159;SDS011;11748;50.844;4.396;2023-02-08T01:54:48;21.80;;;12.20;;
23159;SDS011;11748;50.844;4.396;2023-02-08T01:57:18;17.05;;;11.70;;
23159;SDS011;11748;50.844;4.396;2023-02-08T02:00:02;16.33;;;12.02;;
23159;SDS011;11748;50.844;4.396;2023-02-08T02:02:32;16.98;;;11.80;;
23159;SDS011;11748;50.844;4.396;2023-02-08T02:05:01;18.27;;;12.15;;
23159;SDS011;11748;50.844;4.396;2023-02-08T02:07:27;18.13;;;12.02;;
23159;SDS011;11748;50.844;4.396;2023-02-08T02:10:00;20.48;;;12.48;;
23159;SDS011;11748;50.844;4.396;2023-02-08T02:12:36;16.75;;;11.88;;
23159;SDS011;11748;50.844;4.396;2023-02-08T02:15:04;16.48;;;11.07;;
23159;SDS011;11748;50.844;4.396;2023-02-08T02:17:31;17.92;;;11.43;;
23159;SDS011;11748;50.844;4.396;2023-02-08T02:22:56;17.13;;;12.27;;
23159;SDS011;11748;50.844;4.396;2023-02-08T02:31:37;19.15;;;11.55;;
23159;SDS011;11748;50.844;4.396;2023-02-08T02:39:42;18.45;;;12.50;;
23159;SDS011;11748;50.844;4.396;2023-02-08T02:45:50;23.33;;;12.27;;
23159;SDS011;11748;50.844;4.396;2023-02-08T02:48:31;19.00;;;13.48;;
23159;SDS011;11748;50.844;4.396;2023-02-08T02:51:19;17.52;;;12.65;;
23159;SDS011;11748;50.844;4.396;2023-02-08T02:56:24;20.75;;;13.05;;
23159;SDS011;11748;50.844;4.396;2023-02-08T02:58:55;19.02;;;12.20;;
23159;SDS011;11748;50.844;4.396;2023-02-08T03:01:25;18.70;;;12.75;;
23159;SDS011;11748;50.844;4.396;2023-02-08T03:03:54;19.75;;;12.70;;
23159;SDS011;11748;50.844;4.396;2023-02-08T03:06:45;20.02;;;12.10;;
23159;SDS011;11748;50.844;4.396;2023-02-08T03:09:30;18.60;;;11.98;;
23159;SDS011;11748;50.844;4.396;2023-02-08T03:31:44;18.77;;;12.63;;
23159;SDS011;11748;50.844;4.396;2023-02-08T03:36:49;18.95;;;12.80;;
23159;SDS011;11748;50.844;4.396;2023-02-08T03:39:21;18.90;;;12.03;;
23159;SDS011;11748;50.844;4.396;2023-02-08T03:41:51;19.15;;;12.40;;
23159;SDS011;11748;50.844;4.396;2023-02-08T03:44:25;17.83;;;12.18;;
23159;SDS011;11748;50.844;4.396;2023-02-08T03:46:58;23.70;;;12.95;;
23159;SDS011;11748;50.844;4.396;2023-02-08T03:49:35;21.33;;;13.18;;
23159;SDS011;11748;50.844;4.396;2023-02-08T03:52:03;18.23;;;12.55;;
23159;SDS011;11748;50.844;4.396;2023-02-08T03:54:34;19.80;;;13.02;;
23159;SDS011;11748;50.844;4.396;2023-02-08T03:57:08;18.40;;;12.88;;
23159;SDS011;11748;50.844;4.396;2023-02-08T03:59:46;22.92;;;12.63;;
23159;SDS011;11748;50.844;4.396;2023-02-08T04:02:17;22.10;;;12.02;;
23159;SDS011;11748;50.844;4.396;2023-02-08T04:04:46;18.30;;;13.02;;
23159;SDS011;11748;50.844;4.396;2023-02-08T04:07:15;20.25;;;13.10;;
23159;SDS011;11748;50.844;4.396;2023-02-08T04:09:42;19.45;;;12.23;;
23159;SDS011;11748;50.844;4.396;2023-02-08T04:12:08;18.67;;;11.70;;
23159;SDS011;11748;50.844;4.396;2023-02-08T04:14:34;16.75;;;12.10;;
23159;SDS011;11748;50.844;4.396;2023-02-08T04:17:00;19.90;;;12.55;;
23159;SDS011;11748;50.844;4.396;2023-02-08T04:19:25;20.27;;;13.10;;
23159;SDS011;11748;50.844;4.396;2023-02-08T04:21:51;20.73;;;12.77;;
23159;SDS011;11748;50.844;4.396;2023-02-08T04:24:17;20.30;;;12.38;;
23159;SDS011;11748;50.844;4.396;2023-02-08T04:26:43;16.92;;;12.30;;
23159;SDS011;11748;50.844;4.396;2023-02-08T04:29:08;18.30;;;12.25;;
23159;SDS011;11748;50.844;4.396;2023-02-08T04:31:34;18.40;;;12.50;;
23159;SDS011;11748;50.844;4.396;2023-02-08T04:34:00;18.75;;;11.95;;
23159;SDS011;11748;50.844;4.396;2023-02-08T04:36:26;18.20;;;12.57;;
23159;SDS011;11748;50.844;4.396;2023-02-08T04:38:52;20.50;;;11.88;;
23159;SDS011;11748;50.844;4.396;2023-02-08T04:41:18;18.83;;;11.63;;
23159;SDS011;11748;50.844;4.396;2023-02-08T04:43:44;19.27;;;11.95;;
23159;SDS011;11748;50.844;4.396;2023-02-08T04:46:09;18.92;;;10.85;;
23159;SDS011;11748;50.844;4.396;2023-02-08T04:48:35;19.75;;;11.25;;
23159;SDS011;11748;50.844;4.396;2023-02-08T04:51:01;19.73;;;11.65;;
23159;SDS011;11748;50.844;4.396;2023-02-08T04:53:27;18.77;;;12.27;;
23159;SDS011;11748;50.844;4.396;2023-02-08T04:55:53;21.45;;;12.02;;
23159;SDS011;11748;50.844;4.396;2023-02-08T04:58:18;19.80;;;11.60;;
23159;SDS011;11748;50.844;4.396;2023-02-08T05:00:44;18.17;;;11.35;;
23159;SDS011;11748;50.844;4.396;2023-02-08T05:03:10;19.92;;;10.98;;
23159;SDS011;11748;50.844;4.396;2023-02-08T05:05:37;16.83;;;11.00;;
23159;SDS011;11748;50.844;4.396;2023-02-08T05:08:03;17.67;;;11.75;;
23159;SDS011;11748;50.844;4.396;2023-02-08T05:10:29;16.55;;;11.60;;
23159;SDS011;11748;50.844;4.396;2023-02-08T05:12:54;19.45;;;11.77;;
23159;SDS011;11748;50.844;4.396;2023-02-08T05:15:21;17.95;;;10.98;;
23159;SDS011;11748;50.844;4.396;2023-02-08T05:17:47;20.15;;;10.88;;
23159;SDS011;11748;50.844;4.396;2023-02-08T05:20:12;19.15;;;10.77;;
23159;SDS011;11748;50.844;4.396;2023-02-08T05:22:38;17.35;;;11.50;;
23159;SDS011;11748;50.844;4.396;2023-02-08T05:25:04;18.40;;;11.25;;
23159;SDS011;11748;50.844;4.396;2023-02-08T05:27:32;19.40;;;10.55;;
23159;SDS011;11748;50.844;4.396;2023-02-08T05:29:59;19.35;;;11.93;;
23159;SDS011;11748;50.844;4.396;2023-02-08T05:32:25;18.40;;;11.18;;
23159;SDS011;11748;50.844;4.396;2023-02-08T05:34:51;16.40;;;11.50;;
23159;SDS011;11748;50.844;4.396;2023-02-08T05:37:17;19.33;;;11.63;;
23159;SDS011;11748;50.844;4.396;2023-02-08T05:39:42;19.20;;;11.45;;
23159;SDS011;11748;50.844;4.396;2023-02-08T05:42:08;17.92;;;11.45;;
23159;SDS011;11748;50.844;4.396;2023-02-08T05:44:34;18.77;;;11.98;;
23159;SDS011;11748;50.844;4.396;2023-02-08T05:46:59;22.30;;;11.57;;
23159;SDS011;11748;50.844;4.396;2023-02-08T05:49:26;18.10;;;11.52;;
23159;SDS011;11748;50.844;4.396;2023-02-08T05:51:51;22.92;;;11.27;;
23159;SDS011;11748;50.844;4.396;2023-02-08T05:54:17;19.67;;;11.07;;
23159;SDS011;11748;50.844;4.396;2023-02-08T05:56:43;18.65;;;10.93;;
23159;SDS011;11748;50.844;4.396;2023-02-08T05:59:09;14.60;;;10.25;;
23159;SDS011;11748;50.844;4.396;2023-02-08T06:01:35;19.05;;;11.30;;
23159;SDS011;11748;50.844;4.396;2023-02-08T06:04:01;16.90;;;10.38;;
23159;SDS011;11748;50.844;4.396;2023-02-08T06:06:27;17.67;;;10.65;;
23159;SDS011;11748;50.844;4.396;2023-02-08T06:08:53;17.58;;;10.55;;
23159;SDS011;11748;50.844;4.396;2023-02-08T06:11:19;17.30;;;10.50;;
23159;SDS011;11748;50.844;4.396;2023-02-08T06:13:45;17.38;;;11.20;;
23159;SDS011;11748;50.844;4.396;2023-02-08T06:16:12;19.70;;;11.13;;
23159;SDS011;11748;50.844;4.396;2023-02-08T06:18:38;16.98;;;10.63;;
23159;SDS011;11748;50.844;4.396;2023-02-08T06:21:04;18.20;;;10.77;;
23159;SDS011;11748;50.844;4.396;2023-02-08T06:23:30;18.80;;;10.98;;
23159;SDS011;11748;50.844;4.396;2023-02-08T06:25:56;18.42;;;10.57;;
23159;SDS011;11748;50.844;4.396;2023-02-08T06:28:22;20.92;;;10.95;;
23159;SDS011;11748;50.844;4.396;2023-02-08T06:30:48;20.75;;;11.82;;
23159;SDS011;11748;50.844;4.396;2023-02-08T06:33:14;21.92;;;12.15;;
23159;SDS011;11748;50.844;4.396;2023-02-08T06:35:43;22.50;;;12.23;;
23159;SDS011;11748;50.844;4.396;2023-02-08T06:38:10;23.50;;;12.20;;
23159;SDS011;11748;50.844;4.396;2023-02-08T06:40:36;22.40;;;12.25;;
23159;SDS011;11748;50.844;4.396;2023-02-08T06:43:02;20.40;;;11.90;;
23159;SDS011;11748;50.844;4.396;2023-02-08T06:45:28;24.02;;;11.85;;
23159;SDS011;11748;50.844;4.396;2023-02-08T06:47:53;24.33;;;12.73;;
23159;SDS011;11748;50.844;4.396;2023-02-08T06:50:19;23.45;;;12.32;;
23159;SDS011;11748;50.844;4.396;2023-02-08T06:52:46;18.38;;;11.57;;
23159;SDS011;11748;50.844;4.396;2023-02-08T06:55:12;23.88;;;12.93;;
23159;SDS011;11748;50.844;4.396;2023-02-08T06:57:38;24.48;;;13.18;;
23159;SDS011;11748;50.844;4.396;2023-02-08T07:00:03;26.35;;;12.90;;
23159;SDS011;11748;50.844;4.396;2023-02-08T07:02:30;22.45;;;14.20;;
23159;SDS011;11748;50.844;4.396;2023-02-08T07:04:56;23.42;;;13.23;;
23159;SDS011;11748;50.844;4.396;2023-02-08T07:07:22;23.45;;;13.43;;
23159;SDS011;11748;50.844;4.396;2023-02-08T07:09:48;21.73;;;13.05;;
23159;SDS011;11748;50.844;4.396;2023-02-08T07:12:14;24.50;;;13.93;;
23159;SDS011;11748;50.844;4.396;2023-02-08T07:14:40;31.30;;;13.93;;
23159;SDS011;11748;50.844;4.396;2023-02-08T07:17:07;23.67;;;13.00;;
23159;SDS011;11748;50.844;4.396;2023-02-08T07:19:35;20.08;;;12.13;;
23159;SDS011;11748;50.844;4.396;2023-02-08T07:22:01;24.25;;;14.13;;
23159;SDS011;11748;50.844;4.396;2023-02-08T07:24:33;22.48;;;13.98;;
23159;SDS011;11748;50.844;4.396;2023-02-08T07:27:00;25.50;;;14.43;;
23159;SDS011;11748;50.844;4.396;2023-02-08T07:29:28;21.42;;;14.32;;
23159;SDS011;11748;50.844;4.396;2023-02-08T07:31:57;18.67;;;12.13;;
23159;SDS011;11748;50.844;4.396;2023-02-08T07:34:27;19.05;;;12.40;;
23159;SDS011;11748;50.844;4.396;2023-02-08T07:36:54;18.23;;;11.52;;
23159;SDS011;11748;50.844;4.396;2023-02-08T07:39:20;16.58;;;11.10;;
23159;SDS011;11748;50.844;4.396;2023-02-08T07:41:46;20.13;;;11.95;;
23159;SDS011;11748;50.844;4.396;2023-02-08T07:44:12;24.13;;;12.85;;
23159;SDS011;11748;50.844;4.396;2023-02-08T07:46:38;18.30;;;11.43;;
23159;SDS011;11748;50.844;4.396;2023-02-08T07:49:04;19.50;;;11.15;;
23159;SDS011;11748;50.844;4.396;2023-02-08T07:51:30;17.98;;;11.18;;
23159;SDS011;11748;50.844;4.396;2023-02-08T07:53:56;17.48;;;11.25;;
23159;SDS011;11748;50.844;4.396;2023-02-08T07:56:22;19.90;;;10.85;;
23159;SDS011;11748;50.844;4.396;2023-02-08T07:58:47;19.05;;;10.82;;
23159;SDS011;11748;50.844;4.396;2023-02-08T08:01:13;15.35;;;10.02;;
23159;SDS011;11748;50.844;4.396;2023-02-08T08:03:39;19.20;;;10.77;;
23159;SDS011;11748;50.844;4.396;2023-02-08T08:06:05;16.10;;;10.23;;
23159;SDS011;11748;50.844;4.396;2023-02-08T08:08:30;16.05;;;10.85;;
23159;SDS011;11748;50.844;4.396;2023-02-08T08:10:56;19.02;;;10.85;;
23159;SDS011;11748;50.844;4.396;2023-02-08T08:13:22;16.52;;;10.32;;
23159;SDS011;11748;50.844;4.396;2023-02-08T08:15:48;20.70;;;10.00;;
23159;SDS011;11748;50.844;4.396;2023-02-08T08:18:14;18.27;;;10.50;;
23159;SDS011;11748;50.844;4.396;2023-02-08T08:20:40;16.42;;;9.88;;
23159;SDS011;11748;50.844;4.396;2023-02-08T08:23:05;18.48;;;10.40;;
23159;SDS011;11748;50.844;4.396;2023-02-08T08:25:31;16.52;;;10.05;;
23159;SDS011;11748;50.844;4.396;2023-02-08T08:27:57;18.98;;;9.40;;
23159;SDS011;11748;50.844;4.396;2023-02-08T08:30:24;15.55;;;9.70;;
23159;SDS011;11748;50.844;4.396;2023-02-08T08:32:52;17.45;;;9.63;;
23159;SDS011;11748;50.844;4.396;2023-02-08T08:35:18;14.23;;;9.25;;
23159;SDS011;11748;50.844;4.396;2023-02-08T08:37:44;17.92;;;10.25;;
23159;SDS011;11748;50.844;4.396;2023-02-08T08:40:10;13.43;;;9.13;;
23159;SDS011;11748;50.844;4.396;2023-02-08T08:42:36;16.13;;;9.10;;
23159;SDS011;11748;50.844;4.396;2023-02-08T08:45:04;14.98;;;9.45;;
23159;SDS011;11748;50.844;4.396;2023-02-08T08:47:30;16.13;;;9.30;;
23159;SDS011;11748;50.844;4.396;2023-02-08T08:49:56;14.90;;;9.75;;
23159;SDS011;11748;50.844;4.396;2023-02-08T08:52:22;12.75;;;8.63;;
23159;SDS011;11748;50.844;4.396;2023-02-08T08:54:48;13.38;;;7.85;;
23159;SDS011;11748;50.844;4.396;2023-02-08T08:57:14;14.93;;;8.30;;
23159;SDS011;11748;50.844;4.396;2023-02-08T08:59:40;11.73;;;8.10;;
23159;SDS011;11748;50.844;4.396;2023-02-08T09:02:06;12.57;;;7.63;;
23159;SDS011;11748;50.844;4.396;2023-02-08T09:04:33;17.00;;;8.13;;
23159;SDS011;11748;50.844;4.396;2023-02-08T09:06:59;14.02;;;8.15;;
23159;SDS011;11748;50.844;4.396;2023-02-08T09:09:24;12.95;;;8.88;;
23159;SDS011;11748;50.844;4.396;2023-02-08T09:11:50;16.15;;;7.70;;
23159;SDS011;11748;50.844;4.396;2023-02-08T09:14:16;11.13;;;8.02;;
23159;SDS011;11748;50.844;4.396;2023-02-08T09:16:42;13.63;;;8.00;;
23159;SDS011;11748;50.844;4.396;2023-02-08T09:19:12;13.35;;;8.43;;
23159;SDS011;11748;50.844;4.396;2023-02-08T09:21:38;13.20;;;8.35;;
23159;SDS011;11748;50.844;4.396;2023-02-08T09:24:04;17.27;;;9.25;;
23159;SDS011;11748;50.844;4.396;2023-02-08T09:26:30;17.35;;;9.10;;
23159;SDS011;11748;50.844;4.396;2023-02-08T09:28:56;14.32;;;8.02;;
23159;SDS011;11748;50.844;4.396;2023-02-08T09:31:29;10.38;;;7.35;;
23159;SDS011;11748;50.844;4.396;2023-02-08T09:33:57;12.82;;;8.20;;
23159;SDS011;11748;50.844;4.396;2023-02-08T09:36:26;11.80;;;8.02;;
23159;SDS011;11748;50.844;4.396;2023-02-08T09:38:54;12.55;;;7.63;;
23159;SDS011;11748;50.844;4.396;2023-02-08T09:49:43;10.35;;;7.43;;
23159;SDS011;11748;50.844;4.396;2023-02-08T09:52:20;12.93;;;6.57;;
23159;SDS011;11748;50.844;4.396;2023-02-08T09:54:55;12.50;;;7.57;;
23159;SDS011;11748;50.844;4.396;2023-02-08T09:57:25;13.23;;;6.82;;
23159;SDS011;11748;50.844;4.396;2023-02-08T10:00:00;12.15;;;6.57;;
23159;SDS011;11748;50.844;4.396;2023-02-08T10:02:30;10.90;;;6.30;;
23159;SDS011;11748;50.844;4.396;2023-02-08T10:05:02;12.32;;;6.85;;
23159;SDS011;11748;50.844;4.396;2023-02-08T10:07:29;9.82;;;6.28;;
23159;SDS011;11748;50.844;4.396;2023-02-08T10:09:57;13.55;;;6.97;;
23159;SDS011;11748;50.844;4.396;2023-02-08T10:28:43;19.58;;;5.93;;
23159;SDS011;11748;50.844;4.396;2023-02-08T10:36:38;7.93;;;4.88;;
23159;SDS011;11748;50.844;4.396;2023-02-08T10:39:28;8.02;;;4.70;;
23159;SDS011;11748;50.844;4.396;2023-02-08T10:41:53;7.45;;;4.43;;
23159;SDS011;11748;50.844;4.396;2023-02-08T10:50:06;5.97;;;3.60;;
23159;SDS011;11748;50.844;4.396;2023-02-08T10:52:43;9.73;;;4.20;;
23159;SDS011;11748;50.844;4.396;2023-02-08T10:55:12;6.55;;;3.40;;
23159;SDS011;11748;50.844;4.396;2023-02-08T10:57:40;7.93;;;4.00;;
23159;SDS011;11748;50.844;4.396;2023-02-08T11:00:09;9.88;;;3.67;;
23159;SDS011;11748;50.844;4.396;2023-02-08T11:02:42;7.88;;;3.80;;
23159;SDS011;11748;50.844;4.396;2023-02-08T11:07:33;5.85;;;3.50;;
23159;SDS011;11748;50.844;4.396;2023-02-08T11:12:55;7.30;;;3.25;;
23159;SDS011;11748;50.844;4.396;2023-02-08T11:15:46;5.05;;;3.17;;
23159;SDS011;11748;50.844;4.396;2023-02-08T11:18:19;4.50;;;3.15;;
23159;SDS011;11748;50.844;4.396;2023-02-08T11:20:50;8.23;;;3.53;;
23159;SDS011;11748;50.844;4.396;2023-02-08T11:23:31;6.68;;;3.03;;
23159;SDS011;11748;50.844;4.396;2023-02-08T11:26:20;4.32;;;2.58;;
23159;SDS011;11748;50.844;4.396;2023-02-08T11:31:32;7.55;;;4.20;;
23159;SDS011;11748;50.844;4.396;2023-02-08T11:34:04;6.72;;;2.70;;
23159;SDS011;11748;50.844;4.396;2023-02-08T11:39:13;3.63;;;2.25;;
23159;SDS011;11748;50.844;4.396;2023-02-08T11:41:47;4.80;;;2.42;;
23159;SDS011;11748;50.844;4.396;2023-02-08T11:44:20;5.03;;;2.47;;
23159;SDS011;11748;50.844;4.396;2023-02-08T11:46:50;5.07;;;2.75;;
23159;SDS011;11748;50.844;4.396;2023-02-08T11:49:31;4.95;;;2.58;;
23159;SDS011;11748;50.844;4.396;2023-02-08T11:52:26;7.22;;;2.45;;
23159;SDS011;11748;50.844;4.396;2023-02-08T11:55:21;5.90;;;3.30;;
23159;SDS011;11748;50.844;4.396;2023-02-08T11:57:52;4.25;;;2.60;;
23159;SDS011;11748;50.844;4.396;2023-02-08T12:00:22;4.57;;;2.90;;
23159;SDS011;11748;50.844;4.396;2023-02-08T12:02:57;6.38;;;2.53;;
23159;SDS011;11748;50.844;4.396;2023-02-08T12:05:50;5.75;;;2.88;;
23159;SDS011;11748;50.844;4.396;2023-02-08T12:08:30;5.78;;;2.95;;
23159;SDS011;11748;50.844;4.396;2023-02-08T12:11:15;4.53;;;2.78;;
23159;SDS011;11748;50.844;4.396;2023-02-08T12:17:01;5.82;;;2.55;;
23159;SDS011;11748;50.844;4.396;2023-02-08T12:22:24;6.88;;;3.63;;
23159;SDS011;11748;50.844;4.396;2023-02-08T12:30:36;6.90;;;3.45;;
23159;SDS011;11748;50.844;4.396;2023-02-08T12:41:29;8.52;;;3.20;;
23159;SDS011;11748;50.844;4.396;2023-02-08T12:46:29;4.95;;;3.40;;
23159;SDS011;11748;50.844;4.396;2023-02-08T12:49:20;5.63;;;3.20;;
23159;SDS011;11748;50.844;4.396;2023-02-08T12:57:26;3.97;;;2.50;;
23159;SDS011;11748;50.844;4.396;2023-02-08T13:00:00;3.42;;;2.42;;
23159;SDS011;11748;50.844;4.396;2023-02-08T13:02:50;4.85;;;2.65;;
23159;SDS011;11748;50.844;4.396;2023-02-08T13:05:39;5.68;;;2.92;;
23159;SDS011;11748;50.844;4.396;2023-02-08T13:08:30;3.88;;;2.90;;
23159;SDS011;11748;50.844;4.396;2023-02-08T13:11:03;6.35;;;3.30;;
23159;SDS011;11748;50.844;4.396;2023-02-08T13:13:37;4.28;;;3.25;;
23159;SDS011;11748;50.844;4.396;2023-02-08T13:16:06;6.80;;;3.15;;
23159;SDS011;11748;50.844;4.396;2023-02-08T13:18:42;7.82;;;3.30;;
23159;SDS011;11748;50.844;4.396;2023-02-08T13:24:14;5.10;;;3.38;;
23159;SDS011;11748;50.844;4.396;2023-02-08T13:27:02;4.82;;;3.38;;
23159;SDS011;11748;50.844;4.396;2023-02-08T13:29:31;5.57;;;3.38;;
23159;SDS011;11748;50.844;4.396;2023-02-08T13:32:13;5.35;;;3.10;;
23159;SDS011;11748;50.844;4.396;2023-02-08T13:34:47;6.15;;;3.53;;
23159;SDS011;11748;50.844;4.396;2023-02-08T13:37:18;5.07;;;3.63;;
23159;SDS011;11748;50.844;4.396;2023-02-08T13:39:50;7.38;;;3.70;;
23159;SDS011;11748;50.844;4.396;2023-02-08T13:42:29;5.50;;;3.75;;
23159;SDS011;11748;50.844;4.396;2023-02-08T13:44:56;7.80;;;4.13;;
23159;SDS011;11748;50.844;4.396;2023-02-08T14:03:21;6.50;;;3.55;;
23159;SDS011;11748;50.844;4.396;2023-02-08T14:08:40;5.40;;;3.13;;
23159;SDS011;11748;50.844;4.396;2023-02-08T14:11:26;8.02;;;3.50;;
23159;SDS011;11748;50.844;4.396;2023-02-08T14:14:04;8.52;;;3.58;;
23159;SDS011;11748;50.844;4.396;2023-02-08T14:16:38;5.82;;;3.78;;
23159;SDS011;11748;50.844;4.396;2023-02-08T14:21:47;6.38;;;3.60;;
23159;SDS011;11748;50.844;4.396;2023-02-08T14:32:26;6.97;;;4.10;;
23159;SDS011;11748;50.844;4.396;2023-02-08T14:35:07;7.60;;;3.67;;
23159;SDS011;11748;50.844;4.396;2023-02-08T14:37:40;5.45;;;3.58;;
23159;SDS011;11748;50.844;4.396;2023-02-08T14:45:32;7.15;;;3.92;;
23159;SDS011;11748;50.844;4.396;2023-02-08T14:56:05;7.32;;;4.70;;
23159;SDS011;11748;50.844;4.396;2023-02-08T14:58:41;7.30;;;4.45;;
23159;SDS011;11748;50.844;4.396;2023-02-08T15:01:18;5.60;;;4.13;;
23159;SDS011;11748;50.844;4.396;2023-02-08T15:03:49;6.20;;;4.30;;
23159;SDS011;11748;50.844;4.396;2023-02-08T15:09:21;8.00;;;5.43;;
23159;SDS011;11748;50.844;4.396;2023-02-08T15:11:59;6.93;;;5.10;;
23159;SDS011;11748;50.844;4.396;2023-02-08T15:14:29;8.65;;;4.32;;
23159;SDS011;11748;50.844;4.396;2023-02-08T15:16:57;7.28;;;4.80;;
23159;SDS011;11748;50.844;4.396;2023-02-08T15:19:29;7.15;;;4.85;;
23159;SDS011;11748;50.844;4.396;2023-02-08T15:24:50;9.00;;;4.45;;
23159;SDS011;11748;50.844;4.396;2023-02-08T15:27:22;9.15;;;4.72;;
23159;SDS011;11748;50.844;4.396;2023-02-08T15:29:50;10.57;;;5.60;;
23159;SDS011;11748;50.844;4.396;2023-02-08T15:32:17;9.07;;;4.57;;
23159;SDS011;11748;50.844;4.396;2023-02-08T15:34:45;7.68;;;4.43;;
23159;SDS011;11748;50.844;4.396;2023-02-08T15:37:16;9.23;;;4.70;;
23159;SDS011;11748;50.844;4.396;2023-02-08T15:39:43;16.08;;;6.78;;
23159;SDS011;11748;50.844;4.396;2023-02-08T15:42:15;8.52;;;5.15;;
23159;SDS011;11748;50.844;4.396;2023-02-08T15:44:45;11.05;;;5.03;;
23159;SDS011;11748;50.844;4.396;2023-02-08T15:47:22;9.63;;;4.78;;
23159;SDS011;11748;50.844;4.396;2023-02-08T15:49:52;8.20;;;4.95;;
23159;SDS011;11748;50.844;4.396;2023-02-08T15:52:22;11.45;;;4.88;;
23159;SDS011;11748;50.844;4.396;2023-02-08T15:54:50;8.80;;;4.70;;
23159;SDS011;11748;50.844;4.396;2023-02-08T15:57:31;7.78;;;4.72;;
23159;SDS011;11748;50.844;4.396;2023-02-08T16:00:05;8.48;;;4.55;;
23159;SDS011;11748;50.844;4.396;2023-02-08T16:02:55;10.02;;;5.82;;
23159;SDS011;11748;50.844;4.396;2023-02-08T16:05:25;8.00;;;4.60;;
23159;SDS011;11748;50.844;4.396;2023-02-08T16:07:56;7.18;;;4.25;;
23159;SDS011;11748;50.844;4.396;2023-02-08T16:12:52;7.18;;;4.05;;
23159;SDS011;11748;50.844;4.396;2023-02-08T16:15:33;7.72;;;4.22;;
23159;SDS011;11748;50.844;4.396;2023-02-08T16:21:00;7.72;;;3.95;;
23159;SDS011;11748;50.844;4.396;2023-02-08T16:23:30;6.30;;;4.13;;
23159;SDS011;11748;50.844;4.396;2023-02-08T16:26:08;8.85;;;4.00;;
23159;SDS011;11748;50.844;4.396;2023-02-08T16:28:41;6.65;;;4.10;;
23159;SDS011;11748;50.844;4.396;2023-02-08T16:31:06;9.00;;;4.00;;
23159;SDS011;11748;50.844;4.396;2023-02-08T16:33:32;7.13;;;3.80;;
23159;SDS011;11748;50.844;4.396;2023-02-08T16:36:01;7.28;;;4.47;;
23159;SDS011;11748;50.844;4.396;2023-02-08T16:38:31;9.73;;;3.92;;
23159;SDS011;11748;50.844;4.396;2023-02-08T16:40:59;6.38;;;4.13;;
23159;SDS011;11748;50.844;4.396;2023-02-08T16:43:36;9.30;;;4.20;;
23159;SDS011;11748;50.844;4.396;2023-02-08T16:51:24;10.82;;;4.25;;
23159;SDS011;11748;50.844;4.396;2023-02-08T16:53:53;8.73;;;4.10;;
23159;SDS011;11748;50.844;4.396;2023-02-08T16:56:21;6.22;;;3.92;;
23159;SDS011;11748;50.844;4.396;2023-02-08T16:58:47;6.10;;;4.35;;
23159;SDS011;11748;50.844;4.396;2023-02-08T17:01:13;5.15;;;3.85;;
23159;SDS011;11748;50.844;4.396;2023-02-08T17:03:39;11.90;;;4.70;;
23159;SDS011;11748;50.844;4.396;2023-02-08T17:06:05;6.47;;;4.15;;
23159;SDS011;11748;50.844;4.396;2023-02-08T17:08:37;9.27;;;4.38;;
23159;SDS011;11748;50.844;4.396;2023-02-08T17:11:03;9.40;;;4.07;;
23159;SDS011;11748;50.844;4.396;2023-02-08T17:13:29;7.82;;;3.90;;
23159;SDS011;11748;50.844;4.396;2023-02-08T17:15:56;8.48;;;4.63;;
23159;SDS011;11748;50.844;4.396;2023-02-08T17:18:24;8.30;;;4.78;;
23159;SDS011;11748;50.844;4.396;2023-02-08T17:20:50;11.45;;;4.90;;
23159;SDS011;11748;50.844;4.396;2023-02-08T17:23:21;8.63;;;4.80;;
23159;SDS011;11748;50.844;4.396;2023-02-08T17:25:48;8.73;;;4.40;;
23159;SDS011;11748;50.844;4.396;2023-02-08T17:28:15;10.35;;;5.00;;
23159;SDS011;11748;50.844;4.396;2023-02-08T17:30:43;8.07;;;4.32;;
23159;SDS011;11748;50.844;4.396;2023-02-08T17:33:10;6.65;;;4.13;;
23159;SDS011;11748;50.844;4.396;2023-02-08T17:35:42;7.30;;;3.90;;
23159;SDS011;11748;50.844;4.396;2023-02-08T17:38:12;6.68;;;4.32;;
23159;SDS011;11748;50.844;4.396;2023-02-08T17:40:39;13.30;;;4.20;;
23159;SDS011;11748;50.844;4.396;2023-02-08T17:43:06;7.78;;;4.32;;
23159;SDS011;11748;50.844;4.396;2023-02-08T17:45:35;8.48;;;4.55;;
23159;SDS011;11748;50.844;4.396;2023-02-08T17:48:03;8.32;;;4.75;;
23159;SDS011;11748;50.844;4.396;2023-02-08T17:50:29;8.88;;;5.05;;
23159;SDS011;11748;50.844;4.396;2023-02-08T17:52:55;8.80;;;4.20;;